Погода Дружаевкана неделю

Пензенская область, Россия

26 мая-01 июня
  • 26мая
    Сегодня
    +9°
    +26°
    Ясно и безоблачно
    ВремяПогодаТемператураВлажностьДавлениеВетер, м/сВероятность осадков
    00:00Ясно и безоблачно+11°C49 %751 мм2.5 м/с2 %
    03:00Ясно и безоблачно+8°C59 %750 мм2.4 м/с2 %
    06:00Ясно и безоблачно+11°C57 %750 мм3.2 м/с2 %
    09:00Ясно и безоблачно+21°C35 %750 мм3.7 м/с2 %
    12:00Ясно и безоблачно+24°C29 %749 мм4.0 м/с2 %
    15:00Ясно и безоблачно+26°C28 %748 мм4.1 м/с2 %
    18:00Небольшая облачность+25°C37 %748 мм3.8 м/с2 %
    21:00Облачно с прояснениями+18°C70 %749 мм3.3 м/с2 %
  • 27мая
    Понедельник
    +6°
    +20°
    Ясно и безоблачно
    ВремяПогодаТемператураВлажностьДавлениеВетер, м/сВероятность осадков
    00:00Практически безоблачно+13°C82 %750 мм4.3 м/с2 %
    03:00Ясно и безоблачно+10°C86 %751 мм3.8 м/с2 %
    06:00Ясно и безоблачно+10°C60 %752 мм3.2 м/с2 %
    09:00Ясно и безоблачно+16°C38 %753 мм3.9 м/с2 %
    12:00Ясно и безоблачно+18°C33 %753 мм3.7 м/с2 %
    15:00Ясно и безоблачно+20°C32 %753 мм3.3 м/с2 %
    18:00Ясно и безоблачно+20°C36 %752 мм2.8 м/с2 %
    21:00Ясно и безоблачно+14°C56 %752 мм2.1 м/с2 %
  • 28мая
    Вторник
    +9°
    +24°
    Ясно и безоблачно
    ВремяПогодаТемператураВлажностьДавлениеВетер, м/сВероятность осадков
    00:00Ясно и безоблачно+10°C60 %752 мм2.6 м/с2 %
    03:00Ясно и безоблачно+7°C57 %753 мм2.2 м/с2 %
    06:00Ясно и безоблачно+9°C53 %753 мм2.0 м/с2 %
    09:00Ясно и безоблачно+18°C36 %753 мм1.5 м/с2 %
    12:00Ясно и безоблачно+20°C32 %752 мм0.8 м/с2 %
    15:00Ясно и безоблачно+23°C29 %751 мм0.6 м/с2 %
    18:00Ясно и безоблачно+23°C30 %749 мм0.9 м/с2 %
    21:00Ясно и безоблачно+18°C42 %749 мм0.9 м/с2 %
  • 29мая
    Среда
    +12°
    +26°
    Ясно и безоблачно
    ВремяПогодаТемператураВлажностьДавлениеВетер, м/сВероятность осадков
    00:00Ясно и безоблачно+11°C68 %748 мм2.1 м/с2 %
    03:00Ясно и безоблачно+10°C63 %748 мм2.0 м/с2 %
    06:00Ясно и безоблачно+13°C54 %747 мм2.3 м/с2 %
    09:00Ясно и безоблачно+22°C32 %748 мм2.7 м/с2 %
    12:00Ясно и безоблачно+23°C27 %747 мм2.1 м/с2 %
    15:00Ясно и безоблачно+25°C27 %746 мм1.8 м/с2 %
    18:00Ясно и безоблачно+26°C29 %745 мм1.3 м/с2 %
    21:00Ясно и безоблачно+18°C42 %745 мм2.2 м/с2 %
  • 30мая
    Четверг
    +14°
    +28°
    Ясно и безоблачно
    ВремяПогодаТемператураВлажностьДавлениеВетер, м/сВероятность осадков
    00:00Облачно с прояснениями+15°C53 %744 мм2.2 м/с2 %
    03:00Облачно с прояснениями+13°C55 %744 мм2.4 м/с2 %
    06:00Практически безоблачно+15°C53 %744 мм2.1 м/с2 %
    09:00Облачно с прояснениями+23°C31 %745 мм1.2 м/с2 %
    12:00Небольшая облачность+25°C26 %744 мм1.0 м/с2 %
    15:00Ясно и безоблачно+27°C25 %744 мм1.4 м/с2 %
    18:00Ясно и безоблачно+27°C26 %743 мм1.8 м/с2 %
    21:00Практически безоблачно+20°C41 %743 мм1.0 м/с2 %
Мы используем cookies
Соглашаюсь